Time;durP1;ratioP1;P1;durP2;ratioP2;P2;SDS_P1;SDS_P2;PMS_P1;PMS_P2;Temp;Humidity;BMP_temperature;BMP_pressure;BME280_temperature;BME280_humidity;BME280_pressure;Samples;Min_cycle;Max_cycle;Signal;HPM_P1;HPM_P2
2023/04/26 00:09:09;;;;;;;11.80;3.70;;;;;;;3.35;63.78;99788.94;30975661;28;96888;-64
2023/04/26 00:24:10;;;;;;;12.20;4.63;;;;;;;3.27;64.14;99801.06;30976443;28;96582;-64
2023/04/26 00:39:10;;;;;;;7.20;3.70;;;;;;;3.16;64.31;99802.03;30975747;28;96684;-62
2023/04/26 00:54:12;;;;;;;9.18;3.97;;;;;;;3.07;64.22;99813.34;30973351;28;97275;-66
2023/04/26 01:09:14;;;;;;;13.27;4.40;;;;;;;2.95;64.83;99813.41;30993083;28;97575;-61
2023/04/26 01:24:14;;;;;;;8.13;3.42;;;;;;;2.80;64.88;99827.88;30993520;28;96958;-61
2023/04/26 01:39:14;;;;;;;7.40;3.53;;;;;;;2.66;65.78;99843.00;30992572;28;97208;-62
2023/04/26 01:54:15;;;;;;;11.18;3.47;;;;;;;2.55;65.82;99840.44;30990369;28;102450;-62
2023/04/26 02:09:15;;;;;;;10.35;3.90;;;;;;;2.45;66.28;99844.81;30988960;28;97106;-65
2023/04/26 02:24:16;;;;;;;6.30;2.72;;;;;;;2.36;66.61;99831.44;30987499;28;96996;-62
2023/04/26 02:39:16;;;;;;;15.27;3.60;;;;;;;2.31;67.20;99849.38;30984029;28;109029;-63
2023/04/26 02:54:16;;;;;;;9.98;3.40;;;;;;;2.27;67.61;99853.22;30981140;28;97124;-64
2023/04/26 03:09:17;;;;;;;7.30;3.50;;;;;;;2.13;68.01;99851.72;30983086;28;97190;-65
2023/04/26 03:24:17;;;;;;;5.03;3.17;;;;;;;2.10;68.59;99865.09;30979947;28;96652;-63
2023/04/26 03:39:17;;;;;;;4.32;2.78;;;;;;;2.12;68.89;99886.84;30959763;28;96805;-62
2023/04/26 03:54:18;;;;;;;5.85;2.92;;;;;;;2.22;69.34;99901.88;30977856;28;96708;-62
2023/04/26 04:09:18;;;;;;;2.53;1.58;;;;;;;2.38;69.61;99907.56;30971910;28;97003;-63
2023/04/26 04:24:19;;;;;;;4.90;2.75;;;;;;;2.89;70.15;99929.72;30975113;28;97244;-63
2023/04/26 04:39:19;;;;;;;9.32;2.17;;;;;;;3.65;69.47;99933.88;30970715;28;97012;-62
2023/04/26 04:54:19;;;;;;;4.97;2.55;;;;;;;4.16;68.44;99947.97;30990946;28;96686;-62
2023/04/26 05:09:20;;;;;;;5.40;2.22;;;;;;;4.40;66.96;99958.97;30970824;28;102436;-64
2023/04/26 05:24:20;;;;;;;6.32;1.85;;;;;;;4.70;67.06;99964.28;30902061;28;96812;-65
2023/04/26 05:39:21;;;;;;;2.83;1.13;;;;;;;5.18;65.89;99975.81;30868100;28;104893;-61
2023/04/26 05:54:21;;;;;;;2.88;1.60;;;;;;;5.80;64.59;99980.69;30863571;28;96755;-62
2023/04/26 06:09:21;;;;;;;8.68;1.65;;;;;;;6.56;63.47;99982.28;30863155;28;97288;-63
2023/04/26 06:24:24;;;;;;;6.55;1.58;;;;;;;7.18;61.55;99997.47;30861980;28;109773;-63
2023/04/26 06:39:24;;;;;;;6.27;1.90;;;;;;;8.31;59.72;100000.13;30862703;28;96691;-61
2023/04/26 06:54:28;;;;;;;4.38;1.65;;;;;;;9.05;56.86;100008.28;30857859;28;105063;-64
2023/04/26 07:09:29;;;;;;;5.87;1.37;;;;;;;9.88;53.95;100009.03;30858252;28;96706;-63
2023/04/26 07:24:29;;;;;;;5.35;1.30;;;;;;;10.24;50.52;100015.78;30856189;28;115018;-64
2023/04/26 07:39:29;;;;;;;3.85;0.85;;;;;;;11.04;49.61;100006.69;30853390;28;96841;-64
2023/04/26 07:54:30;;;;;;;7.25;1.23;;;;;;;11.62;46.19;100019.56;30921928;28;96736;-65
2023/04/26 08:09:30;;;;;;;5.80;1.13;;;;;;;11.30;43.64;100018.81;30985136;28;96700;-65
2023/04/26 08:24:31;;;;;;;3.88;1.20;;;;;;;11.89;42.37;100028.81;30976634;28;97315;-66
2023/04/26 08:39:32;;;;;;;3.45;0.80;;;;;;;11.83;40.29;100037.53;30975341;28;97413;-63
2023/04/26 08:54:35;;;;;;;7.17;1.00;;;;;;;12.22;39.69;100035.63;30972981;28;96898;-64
2023/04/26 09:09:41;;;;;;;3.63;1.00;;;;;;;12.18;39.25;100044.03;30979739;28;97919;-63
2023/04/26 09:24:53;;;;;;;7.33;1.37;;;;;;;13.62;36.45;100049.72;30984577;28;97475;-63
2023/04/26 09:39:53;;;;;;;7.77;1.47;;;;;;;18.74;34.21;100045.47;30989189;28;96837;-64
2023/04/26 09:54:54;;;;;;;4.90;1.30;;;;;;;19.63;26.60;100042.13;30987753;28;96814;-63
2023/04/26 10:09:57;;;;;;;5.88;1.48;;;;;;;17.23;29.25;100044.66;30990944;28;96689;-68
2023/04/26 10:24:57;;;;;;;2.77;0.70;;;;;;;16.67;29.78;100034.63;30987461;28;97387;-69
2023/04/26 10:40:28;;;;;;;7.18;1.38;;;;;;;17.05;28.61;100045.41;30982673;28;97458;-64
2023/04/26 10:55:40;;;;;;;1.37;0.50;;;;;;;14.65;32.26;100052.66;30971999;28;97064;-62
2023/04/26 11:10:42;;;;;;;4.07;1.17;;;;;;;16.48;27.86;100031.78;30979101;28;97021;-64
2023/04/26 11:25:43;;;;;;;11.03;1.03;;;;;;;13.52;31.26;100066.94;30983021;28;97452;-64
2023/04/26 11:40:44;;;;;;;4.93;1.05;;;;;;;15.10;30.69;100060.19;30978014;28;96817;-62
2023/04/26 11:55:44;;;;;;;4.38;1.30;;;;;;;14.32;30.44;100065.84;30979393;28;97273;-63
2023/04/26 12:10:45;;;;;;;4.38;1.15;;;;;;;14.08;30.82;100051.91;30976360;28;111880;-64
2023/04/26 12:25:54;;;;;;;5.03;1.30;;;;;;;15.64;28.86;100041.47;30905639;28;105334;-65
2023/04/26 12:40:55;;;;;;;3.17;1.10;;;;;;;16.34;28.79;100062.47;30839397;28;98070;-61
2023/04/26 12:55:55;;;;;;;4.32;1.10;;;;;;;16.17;28.61;100065.59;30854380;28;97168;-62
2023/04/26 13:10:56;;;;;;;6.03;1.27;;;;;;;15.61;31.02;100068.72;30870466;28;96790;-64
2023/04/26 13:25:56;;;;;;;2.63;1.33;;;;;;;15.62;29.40;100076.56;31031665;28;97644;-70
2023/04/26 13:40:57;;;;;;;3.55;1.00;;;;;;;14.20;33.94;100095.03;30980821;28;101436;-71
2023/04/26 13:55:57;;;;;;;3.78;0.98;;;;;;;13.80;33.31;100100.13;30981126;28;97179;-69
2023/04/26 14:10:58;;;;;;;5.72;1.00;;;;;;;13.43;35.00;100105.56;30987005;28;96684;-62
2023/04/26 14:25:58;;;;;;;3.88;0.82;;;;;;;13.86;34.28;100099.34;30984706;28;97814;-67
2023/04/26 14:40:58;;;;;;;7.40;0.90;;;;;;;12.76;35.70;100115.47;30904252;28;97019;-62
2023/04/26 14:55:59;;;;;;;3.72;1.30;;;;;;;12.06;37.28;100122.94;30857956;28;96669;-65
2023/04/26 15:11:00;;;;;;;2.67;1.00;;;;;;;12.03;36.66;100125.97;30920730;28;97344;-65
2023/04/26 15:26:01;;;;;;;5.72;1.48;;;;;;;11.15;40.06;100142.25;30954779;28;96834;-70
2023/04/26 15:41:02;;;;;;;4.60;1.30;;;;;;;11.62;39.47;100144.97;30844848;28;96994;-71
2023/04/26 15:56:02;;;;;;;2.60;1.05;;;;;;;11.71;38.98;100143.06;30843688;28;97653;-67
2023/04/26 16:11:03;;;;;;;1.60;1.20;;;;;;;10.74;39.98;100158.41;30840669;28;97788;-63
2023/04/26 16:26:04;;;;;;;2.13;1.38;;;;;;;10.15;41.37;100153.38;30856850;28;97508;-68
2023/04/26 16:41:04;;;;;;;6.32;1.58;;;;;;;10.10;42.08;100172.53;30976191;28;97119;-67
2023/04/26 16:56:05;;;;;;;4.15;1.40;;;;;;;9.55;41.82;100173.97;30960566;28;97522;-67
2023/04/26 17:11:06;;;;;;;3.53;1.03;;;;;;;8.86;42.98;100178.59;30959421;28;97179;-64
2023/04/26 17:26:07;;;;;;;3.28;1.40;;;;;;;8.81;44.66;100214.44;30959063;28;97392;-65
2023/04/26 17:41:07;;;;;;;4.13;1.67;;;;;;;8.22;48.27;100237.28;30963768;28;96790;-64
2023/04/26 17:56:08;;;;;;;4.30;1.80;;;;;;;7.83;50.01;100232.28;30988001;28;103892;-66
2023/04/26 18:11:09;;;;;;;3.03;2.17;;;;;;;7.26;51.49;100239.47;30936987;28;97568;-62
2023/04/26 18:26:09;;;;;;;5.45;2.45;;;;;;;7.02;52.11;100252.41;30907652;28;96877;-68
2023/04/26 18:41:10;;;;;;;6.10;3.08;;;;;;;6.76;52.79;100253.06;30979762;28;97974;-72
2023/04/26 18:56:10;;;;;;;4.77;2.33;;;;;;;6.56;53.53;100261.06;30979027;28;97239;-72
2023/04/26 19:11:12;;;;;;;6.00;3.00;;;;;;;6.50;53.57;100274.84;30980451;28;96728;-71
2023/04/26 19:26:12;;;;;;;3.90;1.92;;;;;;;6.40;53.79;100284.63;30979367;28;96806;-68
2023/04/26 19:41:12;;;;;;;6.28;3.03;;;;;;;6.32;54.35;100287.97;30978622;28;107709;-63
2023/04/26 19:56:13;;;;;;;8.27;3.55;;;;;;;6.09;55.07;100288.22;30977591;28;104555;-68
2023/04/26 20:11:16;;;;;;;10.75;3.78;;;;;;;6.30;55.17;100297.88;30978295;28;97248;-66
2023/04/26 20:26:16;;;;;;;14.13;3.70;;;;;;;6.36;55.01;100299.09;30974700;28;97234;-68
2023/04/26 20:41:17;;;;;;;6.78;3.60;;;;;;;6.37;55.26;100306.91;30974448;28;97871;-68
2023/04/26 20:56:17;;;;;;;8.45;3.08;;;;;;;6.36;55.05;100312.34;30851713;28;105559;-62
2023/04/26 21:11:17;;;;;;;7.18;3.45;;;;;;;6.03;55.38;100315.25;30849058;28;97151;-64
2023/04/26 21:26:18;;;;;;;10.65;4.20;;;;;;;5.61;56.10;100322.50;30867111;28;96674;-66
2023/04/26 21:41:18;;;;;;;15.50;5.18;;;;;;;5.16;56.89;100339.56;30868774;28;97080;-63
2023/04/26 21:56:18;;;;;;;9.20;4.75;;;;;;;5.01;57.99;100344.34;30867905;28;97209;-61
2023/04/26 22:11:19;;;;;;;10.93;5.90;;;;;;;4.69;58.45;100359.31;30865815;28;107980;-65
2023/04/26 22:26:20;;;;;;;12.38;6.45;;;;;;;4.47;58.81;100367.31;30863881;28;113630;-66
2023/04/26 22:41:20;;;;;;;12.17;5.50;;;;;;;4.24;59.36;100368.22;30861982;28;98008;-66
2023/04/26 22:56:21;;;;;;;13.00;6.03;;;;;;;4.00;60.25;100371.03;30877803;28;96685;-67
2023/04/26 23:11:21;;;;;;;10.57;5.45;;;;;;;3.75;60.35;100381.91;30985945;28;96987;-65
2023/04/26 23:26:21;;;;;;;7.22;3.85;;;;;;;3.54;61.25;100387.88;30982075;28;96740;-64
2023/04/26 23:41:22;;;;;;;11.60;5.43;;;;;;;3.36;61.15;100395.41;30980860;28;111903;-64
2023/04/26 23:56:22;;;;;;;9.85;5.07;;;;;;;3.16;61.30;100399.59;30979600;28;97644;-64
